sensor_id;sensor_type;location;lat;lon;timestamp;P1;durP1;ratioP1;P2;durP2;ratioP2
24143;SDS011;12307;50.828;6.080;2023-07-30T00:00:48;0.60;;;0.60;;
24143;SDS011;12307;50.828;6.080;2023-07-30T00:03:14;0.60;;;0.60;;
24143;SDS011;12307;50.828;6.080;2023-07-30T00:05:40;0.88;;;0.70;;
24143;SDS011;12307;50.828;6.080;2023-07-30T00:08:07;0.75;;;0.68;;
24143;SDS011;12307;50.828;6.080;2023-07-30T00:10:32;0.90;;;0.70;;
24143;SDS011;12307;50.828;6.080;2023-07-30T00:13:00;0.77;;;0.70;;
24143;SDS011;12307;50.828;6.080;2023-07-30T00:15:26;0.70;;;0.70;;
24143;SDS011;12307;50.828;6.080;2023-07-30T00:17:52;0.70;;;0.70;;
24143;SDS011;12307;50.828;6.080;2023-07-30T00:20:17;0.65;;;0.60;;
24143;SDS011;12307;50.828;6.080;2023-07-30T00:22:43;0.60;;;0.60;;
24143;SDS011;12307;50.828;6.080;2023-07-30T00:25:10;0.63;;;0.60;;
24143;SDS011;12307;50.828;6.080;2023-07-30T00:27:36;0.60;;;0.60;;
24143;SDS011;12307;50.828;6.080;2023-07-30T00:30:02;0.60;;;0.60;;
24143;SDS011;12307;50.828;6.080;2023-07-30T00:32:28;0.50;;;0.50;;
24143;SDS011;12307;50.828;6.080;2023-07-30T00:34:54;0.57;;;0.57;;
24143;SDS011;12307;50.828;6.080;2023-07-30T00:37:19;0.60;;;0.60;;
24143;SDS011;12307;50.828;6.080;2023-07-30T00:39:45;0.70;;;0.70;;
24143;SDS011;12307;50.828;6.080;2023-07-30T00:42:12;0.80;;;0.70;;
24143;SDS011;12307;50.828;6.080;2023-07-30T00:44:38;0.70;;;0.63;;
24143;SDS011;12307;50.828;6.080;2023-07-30T00:47:04;0.75;;;0.70;;
24143;SDS011;12307;50.828;6.080;2023-07-30T00:49:30;0.55;;;0.55;;
24143;SDS011;12307;50.828;6.080;2023-07-30T00:51:56;0.57;;;0.57;;
24143;SDS011;12307;50.828;6.080;2023-07-30T00:54:21;0.60;;;0.60;;
24143;SDS011;12307;50.828;6.080;2023-07-30T00:56:49;0.75;;;0.75;;
24143;SDS011;12307;50.828;6.080;2023-07-30T00:59:18;0.70;;;0.70;;
24143;SDS011;12307;50.828;6.080;2023-07-30T01:01:45;0.60;;;0.60;;
24143;SDS011;12307;50.828;6.080;2023-07-30T01:04:12;0.60;;;0.50;;
24143;SDS011;12307;50.828;6.080;2023-07-30T01:06:38;0.65;;;0.65;;
24143;SDS011;12307;50.828;6.080;2023-07-30T01:09:04;0.70;;;0.70;;
24143;SDS011;12307;50.828;6.080;2023-07-30T01:11:30;0.57;;;0.57;;
24143;SDS011;12307;50.828;6.080;2023-07-30T01:13:56;0.60;;;0.60;;
24143;SDS011;12307;50.828;6.080;2023-07-30T01:16:24;0.93;;;0.82;;
24143;SDS011;12307;50.828;6.080;2023-07-30T01:18:50;0.63;;;0.63;;
24143;SDS011;12307;50.828;6.080;2023-07-30T01:21:17;0.88;;;0.73;;
24143;SDS011;12307;50.828;6.080;2023-07-30T01:23:43;0.70;;;0.70;;
24143;SDS011;12307;50.828;6.080;2023-07-30T01:26:10;0.70;;;0.60;;
24143;SDS011;12307;50.828;6.080;2023-07-30T01:28:42;0.60;;;0.60;;
24143;SDS011;12307;50.828;6.080;2023-07-30T01:31:12;0.63;;;0.63;;
24143;SDS011;12307;50.828;6.080;2023-07-30T01:33:40;0.70;;;0.70;;
24143;SDS011;12307;50.828;6.080;2023-07-30T01:36:07;0.95;;;0.70;;
24143;SDS011;12307;50.828;6.080;2023-07-30T01:38:37;0.82;;;0.60;;
24143;SDS011;12307;50.828;6.080;2023-07-30T01:41:03;0.50;;;0.50;;
24143;SDS011;12307;50.828;6.080;2023-07-30T01:43:29;0.98;;;0.70;;
24143;SDS011;12307;50.828;6.080;2023-07-30T01:45:55;0.80;;;0.60;;
24143;SDS011;12307;50.828;6.080;2023-07-30T01:48:21;0.70;;;0.70;;
24143;SDS011;12307;50.828;6.080;2023-07-30T01:50:47;0.70;;;0.70;;
24143;SDS011;12307;50.828;6.080;2023-07-30T01:53:13;0.60;;;0.60;;
24143;SDS011;12307;50.828;6.080;2023-07-30T01:55:40;0.80;;;0.60;;
24143;SDS011;12307;50.828;6.080;2023-07-30T01:58:11;0.52;;;0.52;;
24143;SDS011;12307;50.828;6.080;2023-07-30T02:00:37;0.60;;;0.60;;
24143;SDS011;12307;50.828;6.080;2023-07-30T02:03:03;0.90;;;0.82;;
24143;SDS011;12307;50.828;6.080;2023-07-30T02:05:28;0.70;;;0.70;;
24143;SDS011;12307;50.828;6.080;2023-07-30T02:07:54;0.68;;;0.63;;
24143;SDS011;12307;50.828;6.080;2023-07-30T02:10:20;0.65;;;0.65;;
24143;SDS011;12307;50.828;6.080;2023-07-30T02:12:47;1.52;;;0.70;;
24143;SDS011;12307;50.828;6.080;2023-07-30T02:15:13;0.70;;;0.70;;
24143;SDS011;12307;50.828;6.080;2023-07-30T02:17:38;0.70;;;0.70;;
24143;SDS011;12307;50.828;6.080;2023-07-30T02:20:05;0.57;;;0.57;;
24143;SDS011;12307;50.828;6.080;2023-07-30T02:22:32;0.60;;;0.60;;
24143;SDS011;12307;50.828;6.080;2023-07-30T02:24:57;0.60;;;0.60;;
24143;SDS011;12307;50.828;6.080;2023-07-30T02:27:23;0.65;;;0.60;;
24143;SDS011;12307;50.828;6.080;2023-07-30T02:29:50;0.85;;;0.70;;
24143;SDS011;12307;50.828;6.080;2023-07-30T02:32:16;0.70;;;0.70;;
24143;SDS011;12307;50.828;6.080;2023-07-30T02:34:41;0.65;;;0.65;;
24143;SDS011;12307;50.828;6.080;2023-07-30T02:37:07;0.65;;;0.65;;
24143;SDS011;12307;50.828;6.080;2023-07-30T02:39:33;0.70;;;0.70;;
24143;SDS011;12307;50.828;6.080;2023-07-30T02:41:59;1.13;;;0.88;;
24143;SDS011;12307;50.828;6.080;2023-07-30T02:44:24;1.45;;;0.88;;
24143;SDS011;12307;50.828;6.080;2023-07-30T02:46:51;0.80;;;0.80;;
24143;SDS011;12307;50.828;6.080;2023-07-30T02:49:17;0.50;;;0.50;;
24143;SDS011;12307;50.828;6.080;2023-07-30T02:51:43;0.90;;;0.60;;
24143;SDS011;12307;50.828;6.080;2023-07-30T02:54:13;0.68;;;0.60;;
24143;SDS011;12307;50.828;6.080;2023-07-30T02:56:39;0.63;;;0.60;;
24143;SDS011;12307;50.828;6.080;2023-07-30T02:59:05;0.60;;;0.60;;
24143;SDS011;12307;50.828;6.080;2023-07-30T03:01:31;0.60;;;0.60;;
24143;SDS011;12307;50.828;6.080;2023-07-30T03:03:58;1.00;;;0.70;;
24143;SDS011;12307;50.828;6.080;2023-07-30T03:06:24;0.60;;;0.52;;
24143;SDS011;12307;50.828;6.080;2023-07-30T03:08:49;1.05;;;0.75;;
24143;SDS011;12307;50.828;6.080;2023-07-30T03:11:15;0.55;;;0.50;;
24143;SDS011;12307;50.828;6.080;2023-07-30T03:13:41;0.73;;;0.73;;
24143;SDS011;12307;50.828;6.080;2023-07-30T03:16:07;0.70;;;0.70;;
24143;SDS011;12307;50.828;6.080;2023-07-30T03:18:32;0.80;;;0.80;;
24143;SDS011;12307;50.828;6.080;2023-07-30T03:21:00;0.68;;;0.60;;
24143;SDS011;12307;50.828;6.080;2023-07-30T03:23:26;0.90;;;0.80;;
24143;SDS011;12307;50.828;6.080;2023-07-30T03:25:52;0.85;;;0.73;;
24143;SDS011;12307;50.828;6.080;2023-07-30T03:28:17;0.63;;;0.63;;
24143;SDS011;12307;50.828;6.080;2023-07-30T03:30:43;0.50;;;0.50;;
24143;SDS011;12307;50.828;6.080;2023-07-30T03:33:09;0.60;;;0.60;;
24143;SDS011;12307;50.828;6.080;2023-07-30T03:35:34;0.80;;;0.55;;
24143;SDS011;12307;50.828;6.080;2023-07-30T03:38:01;0.60;;;0.60;;
24143;SDS011;12307;50.828;6.080;2023-07-30T03:40:28;0.80;;;0.70;;
24143;SDS011;12307;50.828;6.080;2023-07-30T03:42:54;0.50;;;0.50;;
24143;SDS011;12307;50.828;6.080;2023-07-30T03:45:20;0.75;;;0.70;;
24143;SDS011;12307;50.828;6.080;2023-07-30T03:47:46;0.77;;;0.70;;
24143;SDS011;12307;50.828;6.080;2023-07-30T03:50:12;0.80;;;0.70;;
24143;SDS011;12307;50.828;6.080;2023-07-30T03:52:37;0.70;;;0.60;;
24143;SDS011;12307;50.828;6.080;2023-07-30T03:55:05;1.13;;;0.80;;
24143;SDS011;12307;50.828;6.080;2023-07-30T03:57:31;0.70;;;0.70;;
24143;SDS011;12307;50.828;6.080;2023-07-30T03:59:57;1.20;;;0.80;;
24143;SDS011;12307;50.828;6.080;2023-07-30T04:02:22;1.00;;;0.70;;
24143;SDS011;12307;50.828;6.080;2023-07-30T04:04:48;0.70;;;0.60;;
24143;SDS011;12307;50.828;6.080;2023-07-30T04:07:15;0.90;;;0.80;;
24143;SDS011;12307;50.828;6.080;2023-07-30T04:09:41;0.63;;;0.63;;
24143;SDS011;12307;50.828;6.080;2023-07-30T04:12:08;0.63;;;0.63;;
24143;SDS011;12307;50.828;6.080;2023-07-30T04:14:33;0.70;;;0.70;;
24143;SDS011;12307;50.828;6.080;2023-07-30T04:16:59;1.15;;;0.80;;
24143;SDS011;12307;50.828;6.080;2023-07-30T04:19:25;0.88;;;0.80;;
24143;SDS011;12307;50.828;6.080;2023-07-30T04:21:51;0.70;;;0.70;;
24143;SDS011;12307;50.828;6.080;2023-07-30T04:24:17;0.77;;;0.70;;
24143;SDS011;12307;50.828;6.080;2023-07-30T04:26:42;0.57;;;0.57;;
24143;SDS011;12307;50.828;6.080;2023-07-30T04:29:09;1.20;;;0.77;;
24143;SDS011;12307;50.828;6.080;2023-07-30T04:31:35;1.58;;;0.80;;
24143;SDS011;12307;50.828;6.080;2023-07-30T04:34:01;0.68;;;0.68;;
24143;SDS011;12307;50.828;6.080;2023-07-30T04:36:27;0.85;;;0.60;;
24143;SDS011;12307;50.828;6.080;2023-07-30T04:38:55;0.70;;;0.70;;
24143;SDS011;12307;50.828;6.080;2023-07-30T04:41:21;0.70;;;0.70;;
24143;SDS011;12307;50.828;6.080;2023-07-30T04:43:47;0.77;;;0.60;;
24143;SDS011;12307;50.828;6.080;2023-07-30T04:46:14;0.60;;;0.60;;
24143;SDS011;12307;50.828;6.080;2023-07-30T04:48:40;0.88;;;0.68;;
24143;SDS011;12307;50.828;6.080;2023-07-30T04:51:06;0.68;;;0.68;;
24143;SDS011;12307;50.828;6.080;2023-07-30T04:53:31;1.00;;;0.68;;
24143;SDS011;12307;50.828;6.080;2023-07-30T04:55:57;0.82;;;0.70;;
24143;SDS011;12307;50.828;6.080;2023-07-30T04:58:23;0.65;;;0.63;;
24143;SDS011;12307;50.828;6.080;2023-07-30T05:00:49;1.13;;;0.70;;
24143;SDS011;12307;50.828;6.080;2023-07-30T05:03:16;0.60;;;0.60;;
24143;SDS011;12307;50.828;6.080;2023-07-30T05:05:42;0.77;;;0.60;;
24143;SDS011;12307;50.828;6.080;2023-07-30T05:08:08;0.82;;;0.75;;
24143;SDS011;12307;50.828;6.080;2023-07-30T05:10:33;1.17;;;0.90;;
24143;SDS011;12307;50.828;6.080;2023-07-30T05:12:59;1.02;;;0.73;;
24143;SDS011;12307;50.828;6.080;2023-07-30T05:15:25;1.02;;;0.80;;
24143;SDS011;12307;50.828;6.080;2023-07-30T05:17:51;0.80;;;0.80;;
24143;SDS011;12307;50.828;6.080;2023-07-30T05:20:18;0.93;;;0.75;;
24143;SDS011;12307;50.828;6.080;2023-07-30T05:22:44;0.73;;;0.68;;
24143;SDS011;12307;50.828;6.080;2023-07-30T05:25:09;0.65;;;0.60;;
24143;SDS011;12307;50.828;6.080;2023-07-30T05:27:35;0.68;;;0.63;;
24143;SDS011;12307;50.828;6.080;2023-07-30T05:30:01;0.60;;;0.60;;
24143;SDS011;12307;50.828;6.080;2023-07-30T05:32:27;0.80;;;0.60;;
24143;SDS011;12307;50.828;6.080;2023-07-30T05:34:53;0.70;;;0.70;;
24143;SDS011;12307;50.828;6.080;2023-07-30T05:37:20;1.00;;;0.55;;
24143;SDS011;12307;50.828;6.080;2023-07-30T05:39:45;0.70;;;0.70;;
24143;SDS011;12307;50.828;6.080;2023-07-30T05:42:11;0.70;;;0.60;;
24143;SDS011;12307;50.828;6.080;2023-07-30T05:44:37;0.75;;;0.75;;
24143;SDS011;12307;50.828;6.080;2023-07-30T05:47:03;1.13;;;0.70;;
24143;SDS011;12307;50.828;6.080;2023-07-30T05:49:29;0.82;;;0.55;;
24143;SDS011;12307;50.828;6.080;2023-07-30T05:51:55;0.70;;;0.70;;
24143;SDS011;12307;50.828;6.080;2023-07-30T05:54:22;1.98;;;0.70;;
24143;SDS011;12307;50.828;6.080;2023-07-30T05:56:48;1.70;;;0.90;;
24143;SDS011;12307;50.828;6.080;2023-07-30T05:59:14;1.00;;;0.80;;
24143;SDS011;12307;50.828;6.080;2023-07-30T06:01:39;0.95;;;0.70;;
24143;SDS011;12307;50.828;6.080;2023-07-30T06:04:05;0.65;;;0.60;;
24143;SDS011;12307;50.828;6.080;2023-07-30T06:06:31;0.60;;;0.60;;
24143;SDS011;12307;50.828;6.080;2023-07-30T06:08:57;0.82;;;0.65;;
24143;SDS011;12307;50.828;6.080;2023-07-30T06:11:24;3.40;;;0.80;;
24143;SDS011;12307;50.828;6.080;2023-07-30T06:13:50;0.52;;;0.52;;
24143;SDS011;12307;50.828;6.080;2023-07-30T06:16:16;0.70;;;0.65;;
24143;SDS011;12307;50.828;6.080;2023-07-30T06:18:43;0.60;;;0.60;;
24143;SDS011;12307;50.828;6.080;2023-07-30T06:21:08;0.70;;;0.70;;
24143;SDS011;12307;50.828;6.080;2023-07-30T06:23:34;0.75;;;0.60;;
24143;SDS011;12307;50.828;6.080;2023-07-30T06:26:00;0.77;;;0.60;;
24143;SDS011;12307;50.828;6.080;2023-07-30T06:28:27;1.08;;;0.60;;
24143;SDS011;12307;50.828;6.080;2023-07-30T06:30:53;0.98;;;0.80;;
24143;SDS011;12307;50.828;6.080;2023-07-30T06:33:19;0.60;;;0.60;;
24143;SDS011;12307;50.828;6.080;2023-07-30T06:35:45;0.90;;;0.60;;
24143;SDS011;12307;50.828;6.080;2023-07-30T06:38:11;0.70;;;0.70;;
24143;SDS011;12307;50.828;6.080;2023-07-30T06:40:37;0.50;;;0.50;;
24143;SDS011;12307;50.828;6.080;2023-07-30T06:43:02;0.60;;;0.60;;
24143;SDS011;12307;50.828;6.080;2023-07-30T06:45:29;0.60;;;0.60;;
24143;SDS011;12307;50.828;6.080;2023-07-30T06:47:55;0.80;;;0.70;;
24143;SDS011;12307;50.828;6.080;2023-07-30T06:50:21;0.70;;;0.70;;
24143;SDS011;12307;50.828;6.080;2023-07-30T06:52:46;0.60;;;0.50;;
24143;SDS011;12307;50.828;6.080;2023-07-30T06:55:12;0.85;;;0.60;;
24143;SDS011;12307;50.828;6.080;2023-07-30T06:57:38;0.82;;;0.70;;
24143;SDS011;12307;50.828;6.080;2023-07-30T07:00:04;0.63;;;0.50;;
24143;SDS011;12307;50.828;6.080;2023-07-30T07:02:31;0.88;;;0.80;;
24143;SDS011;12307;50.828;6.080;2023-07-30T07:04:58;0.50;;;0.50;;
24143;SDS011;12307;50.828;6.080;2023-07-30T07:07:23;0.85;;;0.65;;
24143;SDS011;12307;50.828;6.080;2023-07-30T07:09:49;1.45;;;0.70;;
24143;SDS011;12307;50.828;6.080;2023-07-30T07:12:15;1.05;;;0.77;;
24143;SDS011;12307;50.828;6.080;2023-07-30T07:14:41;0.45;;;0.40;;
24143;SDS011;12307;50.828;6.080;2023-07-30T07:17:08;0.85;;;0.70;;
24143;SDS011;12307;50.828;6.080;2023-07-30T07:19:35;0.73;;;0.68;;
24143;SDS011;12307;50.828;6.080;2023-07-30T07:22:01;0.70;;;0.55;;
24143;SDS011;12307;50.828;6.080;2023-07-30T07:24:27;0.75;;;0.70;;
24143;SDS011;12307;50.828;6.080;2023-07-30T07:26:53;0.82;;;0.60;;
24143;SDS011;12307;50.828;6.080;2023-07-30T07:29:19;0.60;;;0.50;;
24143;SDS011;12307;50.828;6.080;2023-07-30T07:31:45;1.02;;;0.60;;
24143;SDS011;12307;50.828;6.080;2023-07-30T07:34:10;0.75;;;0.60;;
24143;SDS011;12307;50.828;6.080;2023-07-30T07:36:37;0.95;;;0.63;;
24143;SDS011;12307;50.828;6.080;2023-07-30T07:39:03;0.60;;;0.55;;
24143;SDS011;12307;50.828;6.080;2023-07-30T07:41:29;0.93;;;0.70;;
24143;SDS011;12307;50.828;6.080;2023-07-30T07:43:55;1.00;;;0.90;;
24143;SDS011;12307;50.828;6.080;2023-07-30T07:46:21;1.02;;;0.60;;
24143;SDS011;12307;50.828;6.080;2023-07-30T07:48:47;0.73;;;0.60;;
24143;SDS011;12307;50.828;6.080;2023-07-30T07:51:12;1.05;;;0.60;;
24143;SDS011;12307;50.828;6.080;2023-07-30T07:53:40;0.85;;;0.70;;
24143;SDS011;12307;50.828;6.080;2023-07-30T07:56:06;0.70;;;0.70;;
24143;SDS011;12307;50.828;6.080;2023-07-30T07:58:32;0.60;;;0.60;;
24143;SDS011;12307;50.828;6.080;2023-07-30T08:00:58;0.60;;;0.60;;
24143;SDS011;12307;50.828;6.080;2023-07-30T08:03:24;0.68;;;0.60;;
24143;SDS011;12307;50.828;6.080;2023-07-30T08:05:51;1.45;;;0.73;;
24143;SDS011;12307;50.828;6.080;2023-07-30T08:08:18;0.80;;;0.60;;
24143;SDS011;12307;50.828;6.080;2023-07-30T08:10:45;0.80;;;0.70;;
24143;SDS011;12307;50.828;6.080;2023-07-30T08:13:12;0.90;;;0.63;;
24143;SDS011;12307;50.828;6.080;2023-07-30T08:15:38;1.35;;;0.70;;
24143;SDS011;12307;50.828;6.080;2023-07-30T08:18:04;1.00;;;0.70;;
24143;SDS011;12307;50.828;6.080;2023-07-30T08:20:30;0.80;;;0.73;;
24143;SDS011;12307;50.828;6.080;2023-07-30T08:22:56;0.80;;;0.70;;
24143;SDS011;12307;50.828;6.080;2023-07-30T08:25:22;0.40;;;0.40;;
24143;SDS011;12307;50.828;6.080;2023-07-30T08:27:49;0.68;;;0.60;;
24143;SDS011;12307;50.828;6.080;2023-07-30T08:30:14;0.90;;;0.60;;
24143;SDS011;12307;50.828;6.080;2023-07-30T08:32:40;0.98;;;0.60;;
24143;SDS011;12307;50.828;6.080;2023-07-30T08:35:08;0.70;;;0.50;;
24143;SDS011;12307;50.828;6.080;2023-07-30T08:37:34;0.50;;;0.50;;
24143;SDS011;12307;50.828;6.080;2023-07-30T08:40:00;0.70;;;0.60;;
24143;SDS011;12307;50.828;6.080;2023-07-30T08:42:26;0.50;;;0.50;;
24143;SDS011;12307;50.828;6.080;2023-07-30T08:44:53;0.75;;;0.50;;
24143;SDS011;12307;50.828;6.080;2023-07-30T08:47:18;0.63;;;0.60;;
24143;SDS011;12307;50.828;6.080;2023-07-30T08:49:44;0.47;;;0.47;;
24143;SDS011;12307;50.828;6.080;2023-07-30T08:52:10;0.52;;;0.40;;
24143;SDS011;12307;50.828;6.080;2023-07-30T08:54:37;0.50;;;0.50;;
24143;SDS011;12307;50.828;6.080;2023-07-30T08:57:04;0.57;;;0.50;;
24143;SDS011;12307;50.828;6.080;2023-07-30T08:59:31;0.47;;;0.47;;
24143;SDS011;12307;50.828;6.080;2023-07-30T09:02:03;0.65;;;0.52;;
24143;SDS011;12307;50.828;6.080;2023-07-30T09:04:33;0.60;;;0.50;;
24143;SDS011;12307;50.828;6.080;2023-07-30T09:07:01;0.52;;;0.52;;
24143;SDS011;12307;50.828;6.080;2023-07-30T09:09:27;0.73;;;0.57;;
24143;SDS011;12307;50.828;6.080;2023-07-30T09:11:53;0.95;;;0.60;;
24143;SDS011;12307;50.828;6.080;2023-07-30T09:14:19;0.65;;;0.60;;
24143;SDS011;12307;50.828;6.080;2023-07-30T09:16:47;0.68;;;0.55;;
24143;SDS011;12307;50.828;6.080;2023-07-30T09:19:17;0.40;;;0.40;;
24143;SDS011;12307;50.828;6.080;2023-07-30T09:21:43;0.45;;;0.40;;
24143;SDS011;12307;50.828;6.080;2023-07-30T09:24:09;0.50;;;0.50;;
24143;SDS011;12307;50.828;6.080;2023-07-30T09:26:41;0.52;;;0.40;;
24143;SDS011;12307;50.828;6.080;2023-07-30T09:29:08;0.50;;;0.50;;
24143;SDS011;12307;50.828;6.080;2023-07-30T09:31:42;0.43;;;0.40;;
24143;SDS011;12307;50.828;6.080;2023-07-30T09:34:14;0.40;;;0.30;;
24143;SDS011;12307;50.828;6.080;2023-07-30T09:36:43;0.50;;;0.50;;
24143;SDS011;12307;50.828;6.080;2023-07-30T09:39:13;0.40;;;0.40;;
24143;SDS011;12307;50.828;6.080;2023-07-30T09:41:41;0.90;;;0.50;;
24143;SDS011;12307;50.828;6.080;2023-07-30T09:44:07;0.50;;;0.50;;
24143;SDS011;12307;50.828;6.080;2023-07-30T09:46:34;0.77;;;0.47;;
24143;SDS011;12307;50.828;6.080;2023-07-30T09:49:07;0.50;;;0.40;;
24143;SDS011;12307;50.828;6.080;2023-07-30T09:51:34;0.40;;;0.38;;
24143;SDS011;12307;50.828;6.080;2023-07-30T09:54:02;0.55;;;0.50;;
24143;SDS011;12307;50.828;6.080;2023-07-30T09:56:28;0.40;;;0.40;;
24143;SDS011;12307;50.828;6.080;2023-07-30T09:58:54;0.75;;;0.38;;
24143;SDS011;12307;50.828;6.080;2023-07-30T10:01:19;0.77;;;0.43;;
24143;SDS011;12307;50.828;6.080;2023-07-30T10:03:49;0.50;;;0.50;;
24143;SDS011;12307;50.828;6.080;2023-07-30T10:06:14;0.57;;;0.50;;
24143;SDS011;12307;50.828;6.080;2023-07-30T10:08:42;0.85;;;0.50;;
24143;SDS011;12307;50.828;6.080;2023-07-30T10:11:10;0.57;;;0.47;;
24143;SDS011;12307;50.828;6.080;2023-07-30T10:13:37;0.40;;;0.40;;
24143;SDS011;12307;50.828;6.080;2023-07-30T10:16:08;0.47;;;0.47;;
24143;SDS011;12307;50.828;6.080;2023-07-30T10:18:37;0.75;;;0.60;;
24143;SDS011;12307;50.828;6.080;2023-07-30T10:21:04;0.63;;;0.55;;
24143;SDS011;12307;50.828;6.080;2023-07-30T10:23:33;0.50;;;0.50;;
24143;SDS011;12307;50.828;6.080;2023-07-30T10:26:00;0.65;;;0.50;;
24143;SDS011;12307;50.828;6.080;2023-07-30T10:28:34;0.45;;;0.45;;
24143;SDS011;12307;50.828;6.080;2023-07-30T10:31:04;0.40;;;0.40;;
24143;SDS011;12307;50.828;6.080;2023-07-30T10:33:46;0.75;;;0.50;;
24143;SDS011;12307;50.828;6.080;2023-07-30T10:36:16;0.63;;;0.43;;
24143;SDS011;12307;50.828;6.080;2023-07-30T10:38:43;0.85;;;0.50;;
24143;SDS011;12307;50.828;6.080;2023-07-30T10:41:11;0.40;;;0.40;;
24143;SDS011;12307;50.828;6.080;2023-07-30T10:43:39;0.88;;;0.60;;
24143;SDS011;12307;50.828;6.080;2023-07-30T10:46:06;0.70;;;0.38;;
24143;SDS011;12307;50.828;6.080;2023-07-30T10:48:32;0.50;;;0.40;;
24143;SDS011;12307;50.828;6.080;2023-07-30T10:50:59;0.75;;;0.60;;
24143;SDS011;12307;50.828;6.080;2023-07-30T10:53:26;1.00;;;0.55;;
24143;SDS011;12307;50.828;6.080;2023-07-30T10:55:52;0.60;;;0.40;;
24143;SDS011;12307;50.828;6.080;2023-07-30T10:58:19;0.50;;;0.50;;
24143;SDS011;12307;50.828;6.080;2023-07-30T11:00:45;0.90;;;0.43;;
24143;SDS011;12307;50.828;6.080;2023-07-30T11:03:11;0.90;;;0.50;;
24143;SDS011;12307;50.828;6.080;2023-07-30T11:05:37;0.63;;;0.43;;
24143;SDS011;12307;50.828;6.080;2023-07-30T11:08:03;0.47;;;0.40;;
24143;SDS011;12307;50.828;6.080;2023-07-30T11:10:29;0.45;;;0.32;;
24143;SDS011;12307;50.828;6.080;2023-07-30T11:12:55;1.33;;;0.50;;
24143;SDS011;12307;50.828;6.080;2023-07-30T11:15:24;0.85;;;0.50;;
24143;SDS011;12307;50.828;6.080;2023-07-30T11:20:23;0.40;;;0.40;;
24143;SDS011;12307;50.828;6.080;2023-07-30T11:22:51;0.50;;;0.50;;
24143;SDS011;12307;50.828;6.080;2023-07-30T11:25:17;0.50;;;0.50;;
24143;SDS011;12307;50.828;6.080;2023-07-30T11:27:46;0.50;;;0.50;;
24143;SDS011;12307;50.828;6.080;2023-07-30T11:30:12;0.70;;;0.60;;
24143;SDS011;12307;50.828;6.080;2023-07-30T11:32:39;0.50;;;0.50;;
24143;SDS011;12307;50.828;6.080;2023-07-30T11:35:06;0.45;;;0.45;;
24143;SDS011;12307;50.828;6.080;2023-07-30T11:37:33;0.55;;;0.40;;
24143;SDS011;12307;50.828;6.080;2023-07-30T11:39:59;0.80;;;0.50;;
24143;SDS011;12307;50.828;6.080;2023-07-30T11:42:25;0.68;;;0.50;;
24143;SDS011;12307;50.828;6.080;2023-07-30T11:44:54;1.85;;;0.50;;
24143;SDS011;12307;50.828;6.080;2023-07-30T11:47:21;0.30;;;0.30;;
24143;SDS011;12307;50.828;6.080;2023-07-30T11:49:55;0.60;;;0.40;;
24143;SDS011;12307;50.828;6.080;2023-07-30T11:52:21;1.65;;;0.40;;
24143;SDS011;12307;50.828;6.080;2023-07-30T11:54:47;1.75;;;0.52;;
24143;SDS011;12307;50.828;6.080;2023-07-30T11:57:13;0.77;;;0.50;;
24143;SDS011;12307;50.828;6.080;2023-07-30T11:59:39;0.73;;;0.60;;
24143;SDS011;12307;50.828;6.080;2023-07-30T12:02:07;0.55;;;0.40;;
24143;SDS011;12307;50.828;6.080;2023-07-30T12:04:42;0.50;;;0.40;;
24143;SDS011;12307;50.828;6.080;2023-07-30T12:07:10;0.68;;;0.60;;
24143;SDS011;12307;50.828;6.080;2023-07-30T12:09:35;0.50;;;0.40;;
24143;SDS011;12307;50.828;6.080;2023-07-30T12:12:03;0.80;;;0.60;;
24143;SDS011;12307;50.828;6.080;2023-07-30T12:14:47;0.52;;;0.50;;
24143;SDS011;12307;50.828;6.080;2023-07-30T12:17:19;0.50;;;0.50;;
24143;SDS011;12307;50.828;6.080;2023-07-30T12:19:46;0.60;;;0.50;;
24143;SDS011;12307;50.828;6.080;2023-07-30T12:22:12;0.52;;;0.52;;
24143;SDS011;12307;50.828;6.080;2023-07-30T12:24:37;0.50;;;0.40;;
24143;SDS011;12307;50.828;6.080;2023-07-30T12:27:03;0.50;;;0.45;;
24143;SDS011;12307;50.828;6.080;2023-07-30T12:29:29;0.68;;;0.47;;
24143;SDS011;12307;50.828;6.080;2023-07-30T12:31:55;0.45;;;0.38;;
24143;SDS011;12307;50.828;6.080;2023-07-30T12:34:22;0.57;;;0.50;;
24143;SDS011;12307;50.828;6.080;2023-07-30T12:36:49;0.60;;;0.40;;
24143;SDS011;12307;50.828;6.080;2023-07-30T12:39:15;0.50;;;0.40;;
24143;SDS011;12307;50.828;6.080;2023-07-30T12:41:41;0.75;;;0.40;;
24143;SDS011;12307;50.828;6.080;2023-07-30T12:44:06;0.60;;;0.50;;
24143;SDS011;12307;50.828;6.080;2023-07-30T12:46:33;0.57;;;0.52;;
24143;SDS011;12307;50.828;6.080;2023-07-30T12:48:59;0.90;;;0.55;;
24143;SDS011;12307;50.828;6.080;2023-07-30T12:51:30;0.75;;;0.60;;
24143;SDS011;12307;50.828;6.080;2023-07-30T12:53:56;0.77;;;0.50;;
24143;SDS011;12307;50.828;6.080;2023-07-30T12:56:22;0.82;;;0.40;;
24143;SDS011;12307;50.828;6.080;2023-07-30T12:58:48;0.88;;;0.50;;
24143;SDS011;12307;50.828;6.080;2023-07-30T13:01:14;0.40;;;0.40;;
24143;SDS011;12307;50.828;6.080;2023-07-30T13:03:39;0.57;;;0.50;;
24143;SDS011;12307;50.828;6.080;2023-07-30T13:06:09;0.98;;;0.52;;
24143;SDS011;12307;50.828;6.080;2023-07-30T13:08:37;0.88;;;0.60;;
24143;SDS011;12307;50.828;6.080;2023-07-30T13:11:03;0.77;;;0.50;;
24143;SDS011;12307;50.828;6.080;2023-07-30T13:13:29;0.50;;;0.50;;
24143;SDS011;12307;50.828;6.080;2023-07-30T13:15:55;0.50;;;0.50;;
24143;SDS011;12307;50.828;6.080;2023-07-30T13:18:23;0.65;;;0.40;;
24143;SDS011;12307;50.828;6.080;2023-07-30T13:20:48;0.50;;;0.40;;
24143;SDS011;12307;50.828;6.080;2023-07-30T13:23:14;0.80;;;0.50;;
24143;SDS011;12307;50.828;6.080;2023-07-30T13:25:41;1.08;;;0.60;;
24143;SDS011;12307;50.828;6.080;2023-07-30T13:28:07;0.80;;;0.60;;
24143;SDS011;12307;50.828;6.080;2023-07-30T13:30:33;1.10;;;0.50;;
24143;SDS011;12307;50.828;6.080;2023-07-30T13:32:59;0.68;;;0.52;;
24143;SDS011;12307;50.828;6.080;2023-07-30T13:35:24;0.40;;;0.40;;
24143;SDS011;12307;50.828;6.080;2023-07-30T13:37:50;0.50;;;0.50;;
24143;SDS011;12307;50.828;6.080;2023-07-30T13:40:16;0.52;;;0.50;;
24143;SDS011;12307;50.828;6.080;2023-07-30T13:42:43;0.47;;;0.47;;
24143;SDS011;12307;50.828;6.080;2023-07-30T13:45:09;0.55;;;0.50;;
24143;SDS011;12307;50.828;6.080;2023-07-30T13:47:35;0.98;;;0.50;;
24143;SDS011;12307;50.828;6.080;2023-07-30T13:50:01;0.73;;;0.50;;
24143;SDS011;12307;50.828;6.080;2023-07-30T13:52:26;0.90;;;0.40;;
24143;SDS011;12307;50.828;6.080;2023-07-30T13:54:52;0.40;;;0.40;;
24143;SDS011;12307;50.828;6.080;2023-07-30T13:57:21;0.57;;;0.50;;
24143;SDS011;12307;50.828;6.080;2023-07-30T13:59:49;0.45;;;0.45;;
24143;SDS011;12307;50.828;6.080;2023-07-30T14:02:15;0.45;;;0.40;;
24143;SDS011;12307;50.828;6.080;2023-07-30T14:04:41;0.75;;;0.50;;
24143;SDS011;12307;50.828;6.080;2023-07-30T14:07:06;0.40;;;0.40;;
24143;SDS011;12307;50.828;6.080;2023-07-30T14:09:32;0.80;;;0.60;;
24143;SDS011;12307;50.828;6.080;2023-07-30T14:12:00;0.57;;;0.40;;
24143;SDS011;12307;50.828;6.080;2023-07-30T14:14:26;0.43;;;0.40;;
24143;SDS011;12307;50.828;6.080;2023-07-30T14:16:54;0.30;;;0.30;;
24143;SDS011;12307;50.828;6.080;2023-07-30T14:19:19;1.00;;;0.55;;
24143;SDS011;12307;50.828;6.080;2023-07-30T14:21:45;0.68;;;0.40;;
24143;SDS011;12307;50.828;6.080;2023-07-30T14:24:11;1.25;;;0.50;;
24143;SDS011;12307;50.828;6.080;2023-07-30T14:26:37;0.47;;;0.40;;
24143;SDS011;12307;50.828;6.080;2023-07-30T14:29:03;0.57;;;0.30;;
24143;SDS011;12307;50.828;6.080;2023-07-30T14:31:29;0.52;;;0.40;;
24143;SDS011;12307;50.828;6.080;2023-07-30T14:33:56;0.60;;;0.50;;
24143;SDS011;12307;50.828;6.080;2023-07-30T14:36:21;0.88;;;0.50;;
24143;SDS011;12307;50.828;6.080;2023-07-30T14:38:47;0.68;;;0.50;;
24143;SDS011;12307;50.828;6.080;2023-07-30T14:41:13;0.65;;;0.50;;
24143;SDS011;12307;50.828;6.080;2023-07-30T14:43:39;0.77;;;0.50;;
24143;SDS011;12307;50.828;6.080;2023-07-30T14:46:04;0.63;;;0.50;;